createdAt,value
2022-11-06T00:00:03.659Z,4.1
2022-11-06T00:06:23.562Z,4.1
2022-11-06T00:12:46.560Z,2.5
2022-11-06T00:19:06.562Z,2.5
2022-11-06T00:25:29.563Z,2.8
2022-11-06T00:31:49.562Z,2.8
2022-11-06T00:38:12.785Z,6
2022-11-06T00:44:32.571Z,6
2022-11-06T00:50:55.531Z,4.3
2022-11-06T00:57:15.561Z,4.3
2022-11-06T01:03:38.537Z,4.3
2022-11-06T01:09:58.501Z,4.3
2022-11-06T01:16:21.608Z,3.6
2022-11-06T01:22:41.494Z,3.6
2022-11-06T01:29:04.514Z,2.6
2022-11-06T01:35:24.508Z,2.6
2022-11-06T01:41:47.500Z,4.2
2022-11-06T01:48:07.643Z,4.2
2022-11-06T01:54:30.606Z,3
2022-11-06T02:00:50.580Z,3
2022-11-06T02:07:13.573Z,1.4
2022-11-06T02:13:33.593Z,1.4
2022-11-06T02:19:56.572Z,2.9
2022-11-06T02:26:16.500Z,2.9
2022-11-06T02:32:39.639Z,6.2
2022-11-06T02:38:59.646Z,6.2
2022-11-06T02:45:22.543Z,2.4
2022-11-06T02:51:42.634Z,2.4
2022-11-06T02:58:05.585Z,3.2
2022-11-06T03:04:25.644Z,3.2
2022-11-06T03:10:48.627Z,3
2022-11-06T03:17:08.654Z,3
2022-11-06T03:23:31.583Z,2.9
2022-11-06T03:29:51.525Z,2.9
2022-11-06T03:36:14.525Z,3.7
2022-11-06T03:42:34.524Z,3.7
2022-11-06T03:48:57.836Z,3.5
2022-11-06T03:55:17.500Z,3.5
2022-11-06T04:01:40.536Z,2.3
2022-11-06T04:08:00.606Z,2.3
2022-11-06T04:14:23.518Z,2.1
2022-11-06T04:36:53.430Z,3.3
2022-11-06T04:43:13.718Z,3.3
2022-11-06T04:49:36.503Z,2.4
2022-11-06T04:55:56.570Z,2.4
2022-11-06T05:02:19.601Z,1.6
2022-11-06T05:08:39.554Z,1.6
2022-11-06T05:15:02.571Z,1.2
2022-11-06T05:21:22.571Z,1.2
2022-11-06T05:27:45.561Z,1.1
2022-11-06T05:34:05.589Z,1.1
2022-11-06T05:40:28.583Z,1.6
2022-11-06T05:46:49.789Z,1.6
2022-11-06T05:53:11.541Z,2.6
2022-11-06T05:59:31.627Z,2.6
2022-11-06T06:05:54.540Z,1.1
2022-11-06T06:12:14.618Z,1.1
2022-11-06T06:18:37.548Z,2.1
2022-11-06T06:24:57.528Z,2.1
2022-11-06T06:31:20.533Z,1.3
2022-11-06T06:37:40.500Z,1.3
2022-11-06T06:44:03.623Z,0.8
2022-11-06T06:50:23.716Z,0.8
2022-11-06T06:56:46.543Z,1.8
2022-11-06T07:03:06.615Z,1.8
2022-11-06T07:09:29.639Z,2.1
2022-11-06T07:15:49.541Z,2.1
2022-11-06T07:22:12.564Z,0.8
2022-11-06T07:28:32.655Z,0.8
2022-11-06T07:34:55.601Z,1.9
2022-11-06T07:41:15.575Z,1.9
2022-11-06T07:47:38.582Z,1.7
2022-11-06T07:53:58.622Z,1.7
2022-11-06T08:00:21.496Z,1.4
2022-11-06T08:06:41.638Z,1.4
2022-11-06T08:13:04.573Z,1.4
2022-11-06T08:19:24.578Z,1.4
2022-11-06T08:25:47.541Z,1.6
2022-11-06T08:32:07.552Z,1.6
2022-11-06T08:38:30.559Z,1.5
2022-11-06T08:44:50.562Z,1.5
2022-11-06T08:51:13.768Z,1.1
2022-11-06T08:57:33.843Z,1.1
2022-11-06T09:03:56.607Z,1.3
2022-11-06T09:10:16.870Z,1.3
2022-11-06T09:16:39.514Z,1
2022-11-06T09:22:59.605Z,1
2022-11-06T09:29:22.499Z,2.4
2022-11-06T09:53:06.303Z,2.5
2022-11-06T09:59:24.509Z,2.5
2022-11-06T10:05:47.512Z,3.4
2022-11-06T10:12:07.567Z,3.4
2022-11-06T10:18:30.502Z,3.2
2022-11-06T10:24:50.594Z,3.2
2022-11-06T10:31:13.796Z,0.5
2022-11-06T10:37:33.553Z,0.5
2022-11-06T10:43:56.540Z,1.2
2022-11-06T10:50:16.493Z,1.2
2022-11-06T10:56:39.522Z,1
2022-11-06T11:02:59.535Z,1
2022-11-06T11:09:22.537Z,1.7
2022-11-06T11:15:42.498Z,1.7
2022-11-06T11:22:05.504Z,0.6
2022-11-06T11:28:25.621Z,0.6
2022-11-06T11:34:52.725Z,0.9
2022-11-06T11:41:08.496Z,0.9
2022-11-06T11:47:31.578Z,2
2022-11-06T11:53:51.496Z,2
2022-11-06T12:00:14.525Z,1
2022-11-06T12:06:34.532Z,1
2022-11-06T12:12:57.476Z,0.7
2022-11-06T12:19:17.550Z,0.7
2022-11-06T12:25:40.495Z,0.4
2022-11-06T12:32:00.587Z,0.4
2022-11-06T12:38:23.507Z,1.5
2022-11-06T12:44:43.615Z,1.5
2022-11-06T12:51:06.571Z,0.8
2022-11-06T12:57:26.480Z,0.8
2022-11-06T13:03:49.589Z,0.9
2022-11-06T13:10:09.477Z,0.9
2022-11-06T13:16:32.516Z,1.4
2022-11-06T13:22:52.531Z,1.4
2022-11-06T13:29:15.504Z,1.2
2022-11-06T13:35:35.545Z,1.2
2022-11-06T13:41:58.521Z,1.4
2022-11-06T13:48:18.551Z,1.4
2022-11-06T13:54:41.485Z,0.9
2022-11-06T14:01:01.605Z,0.9
2022-11-06T14:07:24.543Z,1.4
2022-11-06T14:13:44.515Z,1.4
2022-11-06T14:20:07.700Z,0.6
2022-11-06T14:26:27.505Z,0.6
2022-11-06T14:32:50.532Z,0.9
2022-11-06T14:39:10.558Z,0.9
2022-11-06T14:45:33.503Z,0.8
2022-11-06T14:51:53.597Z,0.8
2022-11-06T14:58:16.971Z,1.1
2022-11-06T15:21:49.434Z,1.1
2022-11-06T15:28:09.469Z,1.1
2022-11-06T15:34:32.539Z,0.9
2022-11-06T15:40:52.528Z,0.9
2022-11-06T15:47:15.630Z,1.4
2022-11-06T15:53:39.840Z,1.4
2022-11-06T15:59:58.621Z,1
2022-11-06T16:06:18.845Z,1
2022-11-06T16:12:41.549Z,1.4
2022-11-06T16:19:01.576Z,1.4
2022-11-06T16:25:24.607Z,0.4
2022-11-06T16:31:44.511Z,0.4
2022-11-06T16:38:25.971Z,1.2
2022-11-06T16:44:31.148Z,1.2
2022-11-06T16:50:50.537Z,2.2
2022-11-06T16:57:10.750Z,2.2
2022-11-06T17:03:33.593Z,2.3
2022-11-06T17:09:53.590Z,2.3
2022-11-06T17:16:16.768Z,1.5
2022-11-06T17:22:36.568Z,1.5
2022-11-06T17:28:59.625Z,1.9
2022-11-06T17:35:20.016Z,1.9
2022-11-06T17:41:42.687Z,2.4
2022-11-06T17:48:02.503Z,2.4
2022-11-06T17:54:25.585Z,2.4
2022-11-06T18:00:45.548Z,2.4
2022-11-06T18:07:08.559Z,2.8
2022-11-06T18:13:28.520Z,2.8
2022-11-06T18:19:51.510Z,2.5
2022-11-06T18:26:11.602Z,2.5
2022-11-06T18:32:34.578Z,1.6
2022-11-06T18:38:54.541Z,1.6
2022-11-06T18:45:17.485Z,1.3
2022-11-06T18:51:37.541Z,1.3
2022-11-06T18:58:00.508Z,2
2022-11-06T19:04:20.616Z,2
2022-11-06T19:10:43.584Z,1.8
2022-11-06T19:17:03.569Z,1.8
2022-11-06T19:23:26.587Z,1.5
2022-11-06T19:29:46.584Z,1.5
2022-11-06T19:36:09.519Z,1.3
2022-11-06T19:42:29.569Z,1.3
2022-11-06T19:48:52.813Z,1.4
2022-11-06T19:55:25.315Z,1.4
2022-11-06T20:01:35.585Z,1.6
2022-11-06T20:07:55.575Z,1.6
2022-11-06T20:24:23.575Z,1.8
2022-11-06T20:30:43.514Z,1.8
2022-11-06T20:37:06.462Z,1.8
2022-11-06T20:43:26.643Z,1.8
2022-11-06T20:49:49.502Z,1.5
2022-11-06T20:56:09.487Z,1.5
2022-11-06T21:02:32.794Z,1.3
2022-11-06T21:08:52.498Z,1.3
2022-11-06T21:15:15.601Z,0.8
2022-11-06T21:21:35.631Z,0.8
2022-11-06T21:27:58.649Z,0.6
2022-11-06T21:34:18.581Z,0.6
2022-11-06T21:40:41.536Z,1.2
2022-11-06T21:47:01.533Z,1.2
2022-11-06T21:53:24.499Z,0.9
2022-11-06T21:59:44.487Z,0.9
2022-11-06T22:06:07.604Z,1.9
2022-11-06T22:12:27.488Z,1.9
2022-11-06T22:18:50.551Z,1.3
2022-11-06T22:25:10.527Z,1.3
2022-11-06T22:31:33.495Z,0.8
2022-11-06T22:37:53.564Z,0.8
2022-11-06T22:44:16.486Z,0.7
2022-11-06T22:50:36.530Z,0.7
2022-11-06T22:56:59.548Z,1.2
2022-11-06T23:22:30.601Z,1.5
2022-11-06T23:28:50.483Z,1.5
2022-11-06T23:35:15.323Z,1.5
2022-11-06T23:41:33.542Z,1.5
2022-11-06T23:47:56.591Z,0.8
2022-11-06T23:54:16.522Z,0.8
